Time;durP1;ratioP1;P1;durP2;ratioP2;P2;SDS_P1;SDS_P2;PMS_P1;PMS_P2;Temp;Humidity;BMP_temperature;BMP_pressure;BME280_temperature;BME280_humidity;BME280_pressure;Samples;Min_cycle;Max_cycle;Signal;HPM_P1;HPM_P2
2022/10/08 00:01:20;;;;;;;9.57;1.92;;;;;;;12.92;70.34;101503.53;5000877;28;20045;-69
2022/10/08 00:03:52;;;;;;;9.15;1.95;;;;;;;12.93;70.40;101497.31;5007758;28;20038;-69
2022/10/08 00:06:31;;;;;;;8.77;2.28;;;;;;;12.94;70.68;101491.13;5001140;28;20041;-69
2022/10/08 00:09:03;;;;;;;9.52;1.95;;;;;;;12.96;70.65;101485.78;5010102;28;20050;-69
2022/10/08 00:11:34;;;;;;;9.93;2.38;;;;;;;12.97;70.65;101493.66;5002794;28;20106;-70
2022/10/08 00:14:03;;;;;;;8.32;2.50;;;;;;;12.97;70.57;101484.88;5001634;28;20081;-70
2022/10/08 00:16:35;;;;;;;7.22;2.25;;;;;;;12.97;70.71;101483.06;5002334;28;20051;-70
2022/10/08 00:19:09;;;;;;;12.68;2.10;;;;;;;13.00;70.68;101504.16;5003485;28;20055;-68
2022/10/08 00:21:39;;;;;;;7.53;1.90;;;;;;;12.98;70.52;101498.03;4998165;28;20057;-68
2022/10/08 00:24:13;;;;;;;12.48;1.90;;;;;;;12.96;70.79;101502.53;4999327;28;20302;-67
2022/10/08 00:26:41;;;;;;;9.35;2.08;;;;;;;12.91;70.67;101503.59;5003449;28;20042;-68
2022/10/08 00:29:15;;;;;;;9.30;2.00;;;;;;;12.86;71.22;101506.38;5002453;28;20039;-68
2022/10/08 00:31:46;;;;;;;7.38;1.70;;;;;;;12.77;70.95;101496.91;5010774;28;20091;-68
2022/10/08 00:34:24;;;;;;;6.50;1.98;;;;;;;12.74;71.22;101504.94;5003009;28;20043;-68
2022/10/08 00:36:54;;;;;;;7.43;1.70;;;;;;;12.71;71.50;101505.03;5006333;28;20061;-68
2022/10/08 00:39:23;;;;;;;10.52;2.08;;;;;;;12.69;72.03;101499.75;5008837;28;20535;-68
2022/10/08 00:41:54;;;;;;;8.95;1.88;;;;;;;12.68;71.98;101500.69;5009707;28;20042;-68
2022/10/08 00:44:55;;;;;;;11.05;2.05;;;;;;;12.69;72.10;101493.63;5003778;28;20049;-69
2022/10/08 00:47:31;;;;;;;7.68;1.95;;;;;;;12.68;72.38;101499.81;5005694;28;20070;-69
2022/10/08 00:50:08;;;;;;;17.25;2.58;;;;;;;12.69;72.28;101499.75;5005878;28;21073;-68
2022/10/08 00:52:49;;;;;;;10.65;2.08;;;;;;;12.71;72.29;101491.81;4994844;28;20073;-68
2022/10/08 00:55:22;;;;;;;7.07;2.15;;;;;;;12.76;72.63;101494.31;5008835;28;20054;-68
2022/10/08 00:57:51;;;;;;;6.53;1.70;;;;;;;12.79;72.62;101500.38;5002779;28;20047;-68
2022/10/08 01:00:24;;;;;;;13.52;2.00;;;;;;;12.84;72.22;101494.94;5004869;28;20042;-68
2022/10/08 01:02:53;;;;;;;8.43;2.20;;;;;;;12.86;72.25;101501.06;5007403;28;20047;-68
2022/10/08 01:05:58;;;;;;;8.80;1.73;;;;;;;12.91;72.25;101498.28;5007704;28;20563;-68
2022/10/08 01:08:53;;;;;;;6.82;2.20;;;;;;;12.95;72.30;101502.56;5004497;28;20082;-68
2022/10/08 01:12:01;;;;;;;13.45;2.20;;;;;;;12.94;72.06;101499.06;4997760;28;20934;-68
2022/10/08 01:14:59;;;;;;;9.35;1.70;;;;;;;12.97;72.19;101498.09;5005641;28;20042;-67
2022/10/08 01:17:47;;;;;;;7.53;1.70;;;;;;;12.97;72.19;101506.88;5007667;28;20520;-67
2022/10/08 01:20:42;;;;;;;13.05;2.40;;;;;;;12.99;72.43;101498.94;4993606;28;20607;-68
2022/10/08 01:23:35;;;;;;;10.93;2.30;;;;;;;13.01;72.30;101503.25;5002215;28;20049;-67
2022/10/08 01:26:47;;;;;;;9.32;1.80;;;;;;;13.02;72.50;101507.63;5001034;28;20518;-68
2022/10/08 01:29:28;;;;;;;6.28;1.77;;;;;;;13.03;72.32;101505.84;5008823;28;20542;-67
2022/10/08 01:32:06;;;;;;;9.18;2.10;;;;;;;13.04;72.51;101505.81;5003520;28;20043;-67
2022/10/08 01:34:49;;;;;;;9.45;1.85;;;;;;;13.05;72.38;101510.19;5007690;28;20136;-68
2022/10/08 01:37:28;;;;;;;9.50;2.10;;;;;;;13.07;72.81;101511.94;5005522;28;20599;-68
2022/10/08 01:40:01;;;;;;;11.15;2.03;;;;;;;13.07;72.70;101514.59;5012894;28;20077;-68
2022/10/08 01:42:34;;;;;;;7.35;2.22;;;;;;;13.07;72.68;101511.94;5005585;28;20850;-68
2022/10/08 01:45:11;;;;;;;11.93;2.47;;;;;;;13.06;73.11;101513.69;5007225;28;20496;-68
2022/10/08 01:47:43;;;;;;;9.60;2.30;;;;;;;13.06;73.95;101516.34;5007827;28;20043;-68
2022/10/08 01:50:19;;;;;;;10.25;2.40;;;;;;;13.01;74.20;101524.44;5005934;28;20046;-68
2022/10/08 01:52:57;;;;;;;10.02;2.53;;;;;;;12.96;74.20;101522.81;5015734;28;20054;-67
2022/10/08 01:55:40;;;;;;;8.15;2.10;;;;;;;12.89;74.24;101528.31;5006505;28;20051;-67
2022/10/08 01:58:20;;;;;;;11.88;2.35;;;;;;;12.86;74.67;101533.69;5015808;28;20634;-68
2022/10/08 02:00:52;;;;;;;9.93;2.80;;;;;;;12.82;74.84;101531.16;5007523;28;20042;-68
2022/10/08 02:03:20;;;;;;;7.57;2.28;;;;;;;12.81;75.11;101532.06;5008622;28;20125;-68
2022/10/08 02:05:53;;;;;;;9.05;2.30;;;;;;;12.84;76.14;101526.72;5013903;28;20082;-68
2022/10/08 02:08:21;;;;;;;13.15;2.75;;;;;;;12.82;76.57;101528.53;5004102;28;20042;-68
2022/10/08 02:10:50;;;;;;;12.27;2.70;;;;;;;12.81;76.89;101532.97;5012044;28;20034;-68
2022/10/08 02:13:19;;;;;;;15.07;3.63;;;;;;;12.78;77.26;101532.16;5005072;28;20097;-67
2022/10/08 02:16:00;;;;;;;15.23;3.38;;;;;;;12.74;77.57;101536.66;5004733;28;20105;-67
2022/10/08 02:18:45;;;;;;;14.82;4.00;;;;;;;12.70;78.17;101537.69;5008824;28;20078;-67
2022/10/08 02:21:23;;;;;;;10.23;3.38;;;;;;;12.67;79.33;101543.06;5010312;28;20046;-68
2022/10/08 02:24:07;;;;;;;10.52;3.50;;;;;;;12.62;79.67;101545.81;5003612;28;20050;-68
2022/10/08 02:26:43;;;;;;;10.80;3.60;;;;;;;12.56;80.14;101538.06;5011424;28;20077;-68
2022/10/08 02:29:32;;;;;;;10.80;3.67;;;;;;;12.49;79.85;101539.13;5013836;28;20533;-68
2022/10/08 02:32:11;;;;;;;13.77;3.95;;;;;;;12.47;80.21;101552.41;5014069;28;20042;-68
2022/10/08 02:34:49;;;;;;;10.88;3.47;;;;;;;12.45;81.45;101548.94;5015567;28;20042;-68
2022/10/08 02:37:43;;;;;;;9.75;4.15;;;;;;;12.37;81.55;101550.91;5000290;28;20034;-68
2022/10/08 02:40:15;;;;;;;11.13;3.83;;;;;;;12.28;81.29;101544.09;5009119;28;20053;-67
2022/10/08 02:42:51;;;;;;;7.35;3.45;;;;;;;12.25;81.69;101550.31;5004673;28;20047;-68
2022/10/08 02:45:36;;;;;;;10.15;3.85;;;;;;;12.24;81.70;101545.09;4997226;28;20043;-70
2022/10/08 02:48:17;;;;;;;11.50;4.40;;;;;;;12.19;82.12;101537.28;4994068;28;20046;-70
2022/10/08 02:50:50;;;;;;;9.07;4.50;;;;;;;12.15;82.79;101534.75;4994866;28;20046;-70
2022/10/08 02:53:18;;;;;;;9.88;4.45;;;;;;;12.11;83.22;101537.47;5011534;28;20055;-70
2022/10/08 02:56:15;;;;;;;9.68;4.35;;;;;;;12.11;84.16;101531.28;5004748;28;20082;-69
2022/10/08 02:58:45;;;;;;;10.38;4.75;;;;;;;12.06;84.17;101536.69;5008318;28;20849;-69
2022/10/08 03:01:30;;;;;;;11.82;4.60;;;;;;;12.06;84.06;101534.06;5008599;28;20052;-68
2022/10/08 03:04:08;;;;;;;8.48;4.50;;;;;;;12.06;84.22;101541.13;5012137;28;20046;-68
2022/10/08 03:06:36;;;;;;;11.35;3.95;;;;;;;12.05;83.85;101532.34;5004481;28;20046;-68
2022/10/08 03:09:06;;;;;;;10.00;4.00;;;;;;;12.06;84.28;101539.34;5012529;28;20125;-68
2022/10/08 03:11:34;;;;;;;7.95;3.78;;;;;;;12.06;84.87;101538.50;5006930;28;20065;-67
2022/10/08 03:14:08;;;;;;;8.73;3.47;;;;;;;12.06;84.71;101543.78;5011611;28;20047;-68
2022/10/08 03:16:44;;;;;;;11.80;3.58;;;;;;;12.05;84.91;101547.31;4993689;28;20043;-68
2022/10/08 03:19:16;;;;;;;13.00;3.30;;;;;;;12.04;84.92;101548.22;5002368;28;20149;-68
2022/10/08 03:21:48;;;;;;;11.48;3.55;;;;;;;12.03;84.93;101542.09;5003405;28;20044;-68
2022/10/08 03:24:16;;;;;;;12.35;3.95;;;;;;;12.02;85.50;101550.03;5009488;28;20046;-68
2022/10/08 03:26:45;;;;;;;9.57;3.13;;;;;;;12.00;85.30;101551.88;4996382;28;20050;-68
2022/10/08 03:29:12;;;;;;;6.05;2.58;;;;;;;11.97;85.15;101552.75;5000481;28;20084;-67
2022/10/08 03:31:39;;;;;;;8.65;3.00;;;;;;;11.91;85.01;101543.22;4999728;28;20054;-67
2022/10/08 03:34:07;;;;;;;8.27;2.88;;;;;;;11.86;85.78;101560.06;5010019;28;20508;-68
2022/10/08 03:36:34;;;;;;;6.30;2.90;;;;;;;11.78;85.70;101555.84;5004538;28;20046;-68
2022/10/08 03:39:02;;;;;;;8.35;2.65;;;;;;;11.73;85.92;101554.22;5012154;28;20053;-68
2022/10/08 03:41:30;;;;;;;6.68;2.72;;;;;;;11.73;85.96;101557.75;4997108;28;20049;-69
2022/10/08 03:43:58;;;;;;;7.88;2.78;;;;;;;11.73;86.32;101562.16;5003960;28;20057;-69
2022/10/08 03:46:26;;;;;;;8.57;2.65;;;;;;;11.75;86.29;101563.84;5000909;28;20046;-69
2022/10/08 03:48:53;;;;;;;11.45;3.22;;;;;;;11.76;86.39;101567.38;5005384;28;20092;-69
2022/10/08 03:51:22;;;;;;;6.40;2.42;;;;;;;11.79;86.38;101564.66;5007844;28;21137;-68
2022/10/08 03:53:50;;;;;;;7.85;2.60;;;;;;;11.78;86.09;101562.94;4995942;28;20055;-68
2022/10/08 03:56:23;;;;;;;8.45;2.47;;;;;;;11.79;86.16;101565.53;5005178;28;20035;-68
2022/10/08 03:58:59;;;;;;;9.15;2.45;;;;;;;11.81;86.00;101570.75;5002516;28;20050;-68
2022/10/08 04:01:28;;;;;;;8.85;2.25;;;;;;;11.79;86.18;101576.09;5000961;28;20043;-67
2022/10/08 04:03:55;;;;;;;8.95;2.40;;;;;;;11.77;85.98;101566.47;5022264;28;20652;-68
2022/10/08 04:06:23;;;;;;;7.90;2.05;;;;;;;11.76;85.64;101570.88;5004736;28;20123;-67
2022/10/08 04:08:50;;;;;;;6.22;1.83;;;;;;;11.74;85.56;101583.25;5002729;28;20053;-68
2022/10/08 04:11:19;;;;;;;5.45;2.15;;;;;;;11.70;85.44;101584.22;4992173;28;20093;-68
2022/10/08 04:13:46;;;;;;;5.95;1.92;;;;;;;11.65;85.41;101583.44;5007546;28;20496;-68
2022/10/08 04:16:17;;;;;;;11.30;2.67;;;;;;;11.57;85.32;101572.19;4994207;28;20042;-67
2022/10/08 04:18:46;;;;;;;6.65;1.98;;;;;;;11.53;85.66;101583.75;5003769;28;20042;-68
2022/10/08 04:21:17;;;;;;;6.72;1.77;;;;;;;11.46;85.97;101575.09;4999358;28;20393;-68
2022/10/08 04:23:45;;;;;;;4.40;1.90;;;;;;;11.40;86.23;101584.03;5007357;28;20042;-68
2022/10/08 04:26:13;;;;;;;6.88;1.77;;;;;;;11.37;86.30;101589.34;4995369;28;20469;-68
2022/10/08 04:28:43;;;;;;;8.10;2.15;;;;;;;11.33;86.22;101591.19;5009107;28;20497;-68
2022/10/08 04:31:17;;;;;;;9.57;2.10;;;;;;;11.28;86.50;101597.47;5006390;28;20109;-68
2022/10/08 04:33:46;;;;;;;6.55;1.83;;;;;;;11.22;86.85;101600.25;4994284;28;20042;-68
2022/10/08 04:36:20;;;;;;;12.00;2.22;;;;;;;11.15;86.90;101596.88;5012266;28;20097;-68
2022/10/08 04:38:48;;;;;;;8.80;2.35;;;;;;;11.14;86.86;101603.03;5021278;28;20074;-69
2022/10/08 04:41:21;;;;;;;6.22;1.70;;;;;;;11.12;87.02;101591.66;5008853;28;20529;-68
2022/10/08 04:43:48;;;;;;;9.10;2.22;;;;;;;11.10;86.94;101598.72;5008871;28;20039;-68
2022/10/08 04:46:19;;;;;;;7.78;2.38;;;;;;;11.07;87.17;101606.72;5003207;28;20039;-67
2022/10/08 04:48:52;;;;;;;7.22;2.17;;;;;;;11.03;87.05;101608.56;5002530;28;20545;-68
2022/10/08 04:51:22;;;;;;;5.68;2.40;;;;;;;11.00;87.37;101612.09;5000732;28;20515;-68
2022/10/08 04:53:52;;;;;;;6.18;2.35;;;;;;;10.99;87.59;101618.28;5008716;28;20082;-69
2022/10/08 04:56:27;;;;;;;8.02;2.88;;;;;;;10.96;87.57;101617.47;5000192;28;20567;-68
2022/10/08 04:58:57;;;;;;;7.97;2.50;;;;;;;10.97;87.64;101620.09;5010668;28;20046;-69
2022/10/08 05:01:27;;;;;;;10.60;2.80;;;;;;;10.97;87.72;101621.84;5010254;28;20122;-68
2022/10/08 05:03:57;;;;;;;6.10;2.42;;;;;;;10.95;88.04;101626.28;4992769;28;20125;-67
2022/10/08 05:06:28;;;;;;;7.53;2.30;;;;;;;10.96;88.26;101628.03;4991962;28;20043;-68
2022/10/08 05:08:58;;;;;;;11.27;2.47;;;;;;;10.97;88.10;101632.41;5007192;28;20046;-68
2022/10/08 05:11:26;;;;;;;5.40;2.40;;;;;;;10.98;88.09;101634.16;4998360;28;20042;-68
2022/10/08 05:13:56;;;;;;;6.53;2.90;;;;;;;10.99;88.17;101641.16;4999986;28;20423;-67
2022/10/08 05:16:25;;;;;;;9.07;2.80;;;;;;;11.01;88.38;101636.72;5006855;28;20756;-68
2022/10/08 05:18:52;;;;;;;10.52;3.50;;;;;;;11.03;88.61;101645.50;5007850;28;20624;-68
2022/10/08 05:21:24;;;;;;;8.57;3.90;;;;;;;11.06;89.00;101645.41;5013435;28;20121;-68
2022/10/08 05:24:07;;;;;;;11.38;4.40;;;;;;;11.07;89.23;101641.88;5004757;28;20055;-68
2022/10/08 05:26:38;;;;;;;10.38;5.07;;;;;;;11.12;89.19;101644.41;5001764;28;20046;-68
2022/10/08 05:29:27;;;;;;;12.75;5.70;;;;;;;11.16;89.59;101651.41;5011013;28;20038;-69
2022/10/08 05:31:54;;;;;;;14.35;6.45;;;;;;;11.18;89.76;101650.44;4995370;28;20046;-68
2022/10/08 05:34:25;;;;;;;14.50;7.00;;;;;;;11.19;89.92;101641.63;5003731;28;20050;-69
2022/10/08 05:36:52;;;;;;;19.30;7.88;;;;;;;11.24;90.01;101665.28;4991157;28;20045;-70
2022/10/08 05:39:19;;;;;;;17.15;7.90;;;;;;;11.25;89.93;101661.75;4995029;28;20043;-69
2022/10/08 05:41:46;;;;;;;16.45;8.88;;;;;;;11.28;89.94;101661.72;5000538;28;20461;-69
2022/10/08 05:44:13;;;;;;;18.48;9.38;;;;;;;11.33;90.52;101680.94;5002129;28;20958;-69
2022/10/08 05:46:40;;;;;;;16.00;8.85;;;;;;;11.35;90.50;101678.25;5002298;28;20081;-69
2022/10/08 05:49:21;;;;;;;20.95;10.68;;;;;;;11.38;90.67;101680.84;5005012;28;20046;-68
2022/10/08 05:51:49;;;;;;;20.42;10.48;;;;;;;11.39;90.87;101682.59;5009285;28;20043;-69
2022/10/08 05:54:18;;;;;;;19.50;11.32;;;;;;;11.42;90.68;101684.28;4998905;28;20110;-69
2022/10/08 05:56:46;;;;;;;20.88;11.13;;;;;;;11.45;90.94;101692.16;5011345;28;20108;-69
2022/10/08 05:59:23;;;;;;;22.17;11.50;;;;;;;11.46;90.93;101694.75;5005290;28;20460;-69
2022/10/08 06:01:51;;;;;;;21.25;11.57;;;;;;;11.46;90.67;101694.75;5007962;28;20968;-69
2022/10/08 06:04:19;;;;;;;18.35;11.38;;;;;;;11.50;90.57;101698.22;5003023;28;20192;-68
2022/10/08 06:06:46;;;;;;;19.83;11.98;;;;;;;11.51;90.65;101702.59;5005566;28;20082;-68
2022/10/08 06:09:17;;;;;;;24.08;12.35;;;;;;;11.49;90.62;101707.91;5009141;28;20046;-69
2022/10/08 06:11:46;;;;;;;26.17;12.80;;;;;;;11.48;90.53;101711.44;5003802;28;20046;-68
2022/10/08 06:14:19;;;;;;;22.60;12.35;;;;;;;11.50;90.69;101707.00;5008099;28;20117;-68
2022/10/08 06:16:46;;;;;;;26.75;13.02;;;;;;;11.52;90.83;101712.25;4999231;28;20432;-69
2022/10/08 06:19:14;;;;;;;26.55;13.48;;;;;;;11.62;90.72;101718.22;4997827;28;20100;-69
2022/10/08 06:21:41;;;;;;;24.55;13.35;;;;;;;11.73;90.83;101725.91;5011991;28;20097;-69
2022/10/08 06:24:11;;;;;;;24.67;13.57;;;;;;;11.79;90.74;101731.09;5007939;28;20038;-68
2022/10/08 06:26:42;;;;;;;20.33;12.40;;;;;;;11.77;90.44;101728.47;5008993;28;20043;-69
2022/10/08 06:29:16;;;;;;;27.77;13.95;;;;;;;11.76;90.24;101731.16;5010649;28;20045;-69
2022/10/08 06:31:45;;;;;;;24.30;14.13;;;;;;;11.76;90.21;101742.56;5018384;28;20094;-68
2022/10/08 06:34:14;;;;;;;25.85;13.70;;;;;;;11.74;89.95;101747.03;5007544;28;20050;-68
2022/10/08 06:36:42;;;;;;;27.75;14.25;;;;;;;11.75;89.86;101750.53;5005544;28;20049;-67
2022/10/08 06:39:13;;;;;;;27.75;13.82;;;;;;;11.76;90.13;101750.50;5009303;28;20058;-68
2022/10/08 06:41:43;;;;;;;28.75;16.55;;;;;;;11.86;90.05;101750.28;5023930;28;20053;-68
2022/10/08 06:44:13;;;;;;;30.05;16.08;;;;;;;11.93;89.79;101750.16;5007780;28;20038;-68
2022/10/08 06:46:41;;;;;;;24.85;14.07;;;;;;;11.98;89.65;101758.00;5027207;28;20500;-69
2022/10/08 06:49:10;;;;;;;30.30;17.30;;;;;;;12.07;89.42;101755.16;4995281;28;20038;-69
2022/10/08 06:51:39;;;;;;;32.20;16.88;;;;;;;12.15;89.32;101762.94;5011939;28;20109;-68
2022/10/08 06:54:06;;;;;;;30.08;17.23;;;;;;;12.19;89.05;101775.19;5007774;28;20057;-68
2022/10/08 06:56:37;;;;;;;32.05;17.55;;;;;;;12.23;89.08;101776.84;5014745;28;20042;-68
2022/10/08 06:59:05;;;;;;;34.75;18.20;;;;;;;12.34;88.75;101773.97;4996506;28;20073;-68
2022/10/08 07:01:33;;;;;;;35.88;19.05;;;;;;;12.30;88.31;101772.28;5010087;28;20039;-68
2022/10/08 07:04:04;;;;;;;36.10;19.75;;;;;;;12.29;88.41;101796.97;5011902;28;20058;-68
2022/10/08 07:06:31;;;;;;;31.17;18.23;;;;;;;12.29;88.07;101790.84;5011599;28;20034;-68
2022/10/08 07:09:01;;;;;;;36.05;19.40;;;;;;;12.28;88.13;101800.53;5012569;28;20089;-69
2022/10/08 07:11:30;;;;;;;35.58;19.08;;;;;;;12.32;87.90;101802.22;5012739;28;20050;-68
2022/10/08 07:13:58;;;;;;;34.38;19.10;;;;;;;12.33;88.10;101798.66;5010348;28;20050;-68
2022/10/08 07:16:26;;;;;;;34.08;18.83;;;;;;;12.32;88.25;101807.50;5012482;28;20076;-68
2022/10/08 07:18:57;;;;;;;34.55;18.60;;;;;;;12.41;88.11;101809.06;5015142;28;20147;-68
2022/10/08 07:21:27;;;;;;;36.42;19.30;;;;;;;12.49;87.90;101816.81;5020053;28;20479;-68
2022/10/08 07:23:59;;;;;;;37.42;19.10;;;;;;;12.51;87.73;101821.19;5015022;28;20082;-69
2022/10/08 07:26:34;;;;;;;32.15;18.30;;;;;;;12.51;87.77;101823.84;5005168;28;20054;-69
2022/10/08 07:29:07;;;;;;;34.03;18.65;;;;;;;12.56;87.71;101829.88;5006178;28;20042;-68
2022/10/08 07:31:36;;;;;;;34.83;19.08;;;;;;;12.55;87.49;101832.56;5032084;28;20056;-68
2022/10/08 07:34:09;;;;;;;34.30;19.38;;;;;;;12.59;87.30;101836.84;5014078;28;20050;-68
2022/10/08 07:36:37;;;;;;;30.98;18.17;;;;;;;12.63;87.15;101841.19;5013518;28;20054;-68
2022/10/08 07:39:12;;;;;;;33.88;18.55;;;;;;;12.67;87.23;101839.34;5005595;28;20546;-68
2022/10/08 07:41:40;;;;;;;35.42;18.17;;;;;;;12.71;87.16;101846.31;5020406;28;20043;-68
2022/10/08 07:44:11;;;;;;;34.72;17.25;;;;;;;12.77;86.72;101840.00;5010469;28;20043;-68
2022/10/08 07:46:44;;;;;;;30.27;16.08;;;;;;;12.87;86.33;101852.97;5014374;28;20105;-68
2022/10/08 07:49:11;;;;;;;29.45;17.38;;;;;;;12.94;85.62;101859.00;5016821;28;20527;-68
2022/10/08 07:51:40;;;;;;;30.58;17.15;;;;;;;12.97;85.61;101860.69;5009775;28;20050;-69
2022/10/08 07:54:13;;;;;;;28.92;15.63;;;;;;;13.01;85.47;101862.38;5015202;28;20046;-69
2022/10/08 07:56:40;;;;;;;35.03;17.85;;;;;;;13.09;85.56;101862.16;5012359;28;20097;-69
2022/10/08 07:59:13;;;;;;;28.65;14.73;;;;;;;13.13;84.74;101869.13;5027036;28;20578;-69
2022/10/08 08:01:41;;;;;;;29.92;15.27;;;;;;;13.15;84.41;101872.63;5009209;28;20051;-69
2022/10/08 08:04:10;;;;;;;22.02;11.57;;;;;;;13.19;84.07;101875.16;5010533;28;20138;-68
2022/10/08 08:06:51;;;;;;;26.02;13.73;;;;;;;13.27;83.77;101876.72;5010764;28;20093;-69
2022/10/08 08:09:18;;;;;;;22.88;12.82;;;;;;;13.33;83.53;101873.91;4997318;28;20121;-69
2022/10/08 08:11:47;;;;;;;21.85;11.38;;;;;;;13.40;82.77;101874.66;5019877;28;20043;-69
2022/10/08 08:14:14;;;;;;;24.88;13.00;;;;;;;13.46;82.47;101878.03;5007286;28;20055;-69
2022/10/08 08:16:41;;;;;;;26.02;12.90;;;;;;;13.51;82.22;101875.25;5023264;28;20042;-68
2022/10/08 08:19:08;;;;;;;25.23;11.95;;;;;;;13.56;81.28;101881.31;5024531;28;20136;-68
2022/10/08 08:21:37;;;;;;;24.25;11.70;;;;;;;13.57;80.91;101891.00;5009328;28;20042;-69
2022/10/08 08:24:12;;;;;;;18.40;10.60;;;;;;;13.66;80.88;101887.22;5010403;28;20139;-68
2022/10/08 08:26:42;;;;;;;21.55;10.82;;;;;;;13.73;79.64;101890.59;5007326;28;20046;-69
2022/10/08 08:29:17;;;;;;;22.33;10.90;;;;;;;13.78;79.45;101897.50;5009226;28;20041;-69
2022/10/08 08:31:48;;;;;;;21.80;11.07;;;;;;;13.80;80.16;101902.75;5006626;28;20065;-69
2022/10/08 08:34:20;;;;;;;16.70;9.57;;;;;;;13.89;79.27;101905.16;5025297;28;20061;-69
2022/10/08 08:36:50;;;;;;;19.48;9.10;;;;;;;13.95;79.22;101905.00;5014009;28;20097;-68
2022/10/08 08:39:20;;;;;;;19.23;9.00;;;;;;;14.05;77.95;101913.56;5018327;28;20046;-69
2022/10/08 08:42:00;;;;;;;19.75;8.65;;;;;;;14.11;77.86;101921.34;5014389;28;20046;-69
2022/10/08 08:44:41;;;;;;;16.45;6.05;;;;;;;14.19;75.41;101922.91;5015544;28;20674;-69
2022/10/08 08:47:24;;;;;;;12.80;4.95;;;;;;;14.22;73.81;101914.88;5003067;28;20052;-69
2022/10/08 08:50:19;;;;;;;10.13;3.50;;;;;;;14.29;72.70;101935.00;5009771;28;20044;-69
2022/10/08 08:52:46;;;;;;;9.63;3.53;;;;;;;14.37;72.38;101940.09;5010720;28;20416;-70
2022/10/08 08:55:18;;;;;;;9.52;2.55;;;;;;;14.42;71.79;101933.75;4996791;28;20054;-69
2022/10/08 08:58:34;;;;;;;9.38;2.35;;;;;;;14.54;70.18;101937.81;5009766;28;20045;-69
2022/10/08 09:01:16;;;;;;;;;;;;;;;14.52;69.78;101936.97;4998779;28;20054;-70
2022/10/08 09:03:50;;;;;;;7.88;2.42;;;;;;;14.49;69.07;101933.53;5003444;28;19932;-70
2022/10/08 09:06:21;;;;;;;;;;;;;;;14.33;68.49;101943.72;5004477;28;20050;-69
2022/10/08 09:08:56;;;;;;;7.45;1.77;;;;;;;14.32;69.68;101942.00;5019077;28;19949;-69
2022/10/08 09:11:24;;;;;;;8.45;1.77;;;;;;;14.49;68.57;101945.03;4998337;28;20046;-69
2022/10/08 09:14:10;;;;;;;7.15;1.60;;;;;;;14.69;68.77;101944.47;5019525;28;20046;-69
2022/10/08 09:16:38;;;;;;;7.22;1.77;;;;;;;14.82;68.22;101952.94;5011054;28;20086;-69
2022/10/08 09:19:05;;;;;;;7.80;1.20;;;;;;;14.85;67.84;101950.19;5013300;28;20053;-70
2022/10/08 09:21:33;;;;;;;4.78;1.60;;;;;;;14.93;67.09;101962.34;5002744;28;20081;-70
2022/10/08 09:24:01;;;;;;;4.72;1.25;;;;;;;14.94;65.15;101966.75;5016994;28;20057;-69
2022/10/08 09:26:34;;;;;;;4.85;1.13;;;;;;;14.85;65.07;101965.25;5006916;28;20120;-69
2022/10/08 09:29:04;;;;;;;7.28;1.40;;;;;;;14.72;64.10;101986.84;5000880;28;20046;-69
2022/10/08 09:31:46;;;;;;;4.93;0.90;;;;;;;14.52;63.52;101979.44;5010867;28;20050;-69
2022/10/08 09:34:18;;;;;;;4.55;0.70;;;;;;;14.35;63.64;101985.22;5018527;28;20524;-69
2022/10/08 09:37:00;;;;;;;9.50;1.30;;;;;;;14.22;63.96;101987.34;4998542;28;20039;-69
2022/10/08 09:39:32;;;;;;;6.88;1.33;;;;;;;14.34;63.91;101993.22;4999636;28;20539;-70
2022/10/08 09:42:06;;;;;;;7.05;1.40;;;;;;;14.35;63.45;101997.63;5014077;28;20089;-70
2022/10/08 09:45:02;;;;;;;;;;;;;;;14.27;63.06;102003.13;5007663;28;20043;-70
2022/10/08 09:47:29;;;;;;;;;;;;;;;14.53;63.02;102001.53;5016187;28;19931;-70
2022/10/08 09:50:17;;;;;;;4.50;0.90;;;;;;;14.90;63.40;101997.84;5015555;28;19930;-70
2022/10/08 09:52:53;;;;;;;5.00;0.95;;;;;;;15.07;62.49;101998.19;5009163;28;20074;-70
2022/10/08 09:55:29;;;;;;;7.18;1.00;;;;;;;15.05;59.40;102005.34;5020402;28;20050;-70
2022/10/08 09:57:59;;;;;;;6.70;0.80;;;;;;;14.93;58.22;102011.03;5021527;28;20045;-70
2022/10/08 10:00:34;;;;;;;7.03;0.82;;;;;;;14.86;59.25;102023.59;5015632;28;20039;-70
2022/10/08 10:03:05;;;;;;;5.13;0.90;;;;;;;14.74;59.77;102026.63;5022861;28;20046;-70
2022/10/08 10:05:36;;;;;;;5.88;0.90;;;;;;;14.70;60.23;102022.31;5008104;28;20042;-70
2022/10/08 10:08:03;;;;;;;6.82;1.27;;;;;;;14.79;60.87;102021.16;5005371;28;20050;-70
2022/10/08 10:10:40;;;;;;;4.72;1.10;;;;;;;15.18;60.81;102032.41;5009829;28;20046;-69
2022/10/08 10:13:34;;;;;;;7.28;1.20;;;;;;;15.56;60.64;102023.25;5011162;28;20070;-70
2022/10/08 10:16:09;;;;;;;4.40;1.10;;;;;;;15.88;59.67;102011.56;5012487;28;20038;-70
2022/10/08 10:18:53;;;;;;;3.72;0.95;;;;;;;15.88;56.46;102018.69;5017584;28;20046;-70
2022/10/08 10:21:31;;;;;;;5.63;1.03;;;;;;;15.89;55.98;102023.09;5006230;28;20054;-69
2022/10/08 10:24:26;;;;;;;6.38;1.30;;;;;;;15.68;57.24;102029.03;5019506;28;20034;-71
2022/10/08 10:27:04;;;;;;;4.53;0.88;;;;;;;15.45;57.90;102032.44;4997896;28;20045;-72
2022/10/08 10:29:50;;;;;;;6.80;1.00;;;;;;;15.25;58.86;102030.41;5010496;28;20766;-70
2022/10/08 10:32:33;;;;;;;5.80;1.00;;;;;;;15.39;59.41;102027.31;5023145;28;20046;-70
2022/10/08 10:35:14;;;;;;;7.57;1.10;;;;;;;15.62;58.97;102036.31;5012553;28;20050;-70
2022/10/08 10:37:55;;;;;;;6.75;1.00;;;;;;;15.87;58.43;102044.41;5007769;28;20035;-70
2022/10/08 10:40:57;;;;;;;6.38;1.00;;;;;;;16.06;58.22;102020.72;5015843;28;20095;-70
2022/10/08 10:43:41;;;;;;;8.02;1.00;;;;;;;16.29;56.48;102032.34;4994435;28;20468;-70
2022/10/08 10:46:15;;;;;;;8.20;1.17;;;;;;;16.46;57.19;102034.41;5002563;28;20038;-70
2022/10/08 10:48:42;;;;;;;5.22;0.82;;;;;;;16.61;56.02;102036.50;5002555;28;20097;-69
2022/10/08 10:51:34;;;;;;;6.63;1.10;;;;;;;16.70;53.52;102035.28;5003319;28;20038;-70
2022/10/08 10:54:34;;;;;;;5.18;0.75;;;;;;;16.70;54.08;102034.41;5010321;28;20042;-70
2022/10/08 10:57:48;;;;;;;3.20;0.80;;;;;;;16.46;54.42;102035.25;5009800;28;20504;-70
2022/10/08 11:00:26;;;;;;;5.88;1.10;;;;;;;16.17;54.28;102036.31;5008968;28;20050;-68
2022/10/08 11:03:21;;;;;;;4.88;1.10;;;;;;;15.99;54.97;102032.50;5003365;28;20051;-69
2022/10/08 11:06:04;;;;;;;6.13;1.00;;;;;;;15.87;56.20;102048.84;5001033;28;20042;-69
2022/10/08 11:09:09;;;;;;;6.25;1.10;;;;;;;15.89;56.59;102047.88;5009656;28;20765;-68
2022/10/08 11:12:08;;;;;;;;;;;;;;;15.89;54.15;102050.53;5012848;28;20057;-66
2022/10/08 11:15:04;;;;;;;5.97;1.15;;;;;;;15.64;54.33;102050.44;4993478;28;19926;-67
2022/10/08 11:18:00;;;;;;;6.47;0.80;;;;;;;15.42;55.00;102044.94;4996997;28;20034;-67
2022/10/08 11:20:56;;;;;;;5.88;0.65;;;;;;;15.24;55.73;102043.72;4994665;28;20051;-66
2022/10/08 11:24:00;;;;;;;6.68;0.93;;;;;;;15.12;56.81;102061.78;4996986;28;20115;-68
2022/10/08 11:26:53;;;;;;;5.85;1.20;;;;;;;15.03;55.91;102052.31;5001791;28;20047;-69
2022/10/08 11:30:13;;;;;;;2.78;0.68;;;;;;;15.22;55.54;102044.63;5002819;28;20078;-68
2022/10/08 11:32:48;;;;;;;5.72;0.80;;;;;;;15.59;54.68;102041.75;5004878;28;20525;-68
2022/10/08 11:35:34;;;;;;;3.75;0.57;;;;;;;15.97;53.88;102056.47;4992274;28;20046;-69
2022/10/08 11:38:16;;;;;;;2.22;0.98;;;;;;;16.42;52.04;102038.09;5008257;28;20105;-69
2022/10/08 11:40:54;;;;;;;5.65;1.00;;;;;;;16.71;52.59;102044.13;4995878;28;20050;-68
2022/10/08 11:43:38;;;;;;;4.93;0.95;;;;;;;17.01;51.78;102047.47;4997694;28;20046;-69
2022/10/08 11:46:35;;;;;;;9.23;1.15;;;;;;;17.45;51.08;102045.81;5001740;28;20081;-67
2022/10/08 11:49:24;;;;;;;7.10;0.90;;;;;;;17.74;48.92;102059.75;5010345;28;20134;-67
2022/10/08 11:51:53;;;;;;;2.63;0.75;;;;;;;17.81;46.35;102056.72;5004954;28;20043;-69
2022/10/08 11:54:37;;;;;;;5.38;0.98;;;;;;;17.95;47.14;102047.28;5008895;28;20078;-68
2022/10/08 11:57:36;;;;;;;3.17;0.70;;;;;;;17.72;45.82;102041.13;5006925;28;20049;-67
2022/10/08 12:00:36;;;;;;;3.80;0.73;;;;;;;17.56;45.54;102056.88;5002185;28;20524;-68